TimeEST,TemperatureF,Dew PointF,Humidity,Sea Level PressureIn,VisibilityMPH,Wind Direction,Wind SpeedMPH,Gust SpeedMPH,PrecipitationIn,Events,Conditions,WindDirDegrees,DateUTC
12:52 AM,45.0,42.1,90,30.00,6.0,SSE,3.5,-,N/A,,Clear,150,2013-01-30 05:52:00
1:52 AM,57.9,51.1,78,29.99,10.0,South,5.8,-,N/A,,Clear,170,2013-01-30 06:52:00
2:52 AM,59.0,52.0,78,29.96,10.0,SSE,8.1,-,N/A,,Scattered Clouds,160,2013-01-30 07:52:00
3:52 AM,59.0,52.0,78,29.94,10.0,South,8.1,-,N/A,,Partly Cloudy,170,2013-01-30 08:52:00
4:52 AM,62.1,54.0,75,29.91,10.0,South,9.2,-,N/A,,Clear,190,2013-01-30 09:52:00
5:10 AM,62.6,53.6,72,29.91,10.0,South,10.4,-,N/A,,Scattered Clouds,180,2013-01-30 10:10:00
5:52 AM,61.0,54.0,78,29.91,10.0,South,8.1,-,N/A,,Scattered Clouds,170,2013-01-30 10:52:00
6:52 AM,60.1,55.0,83,29.89,10.0,SSE,8.1,-,N/A,,Mostly Cloudy,160,2013-01-30 11:52:00
7:52 AM,61.0,55.9,83,29.88,6.0,South,10.4,17.3,N/A,,Mostly Cloudy,170,2013-01-30 12:52:00
8:27 AM,48.2,44.6,87,29.88,5.0,ESE,9.2,-,N/A,Fog,Patches of Fog,120,2013-01-30 13:27:00
8:52 AM,52.0,48.0,86,29.87,5.0,Variable,6.9,-,N/A,Fog,Patches of Fog,0,2013-01-30 13:52:00
9:52 AM,66.0,57.9,75,29.85,6.0,SSW,11.5,26.5,N/A,,Haze,200,2013-01-30 14:52:00
10:52 AM,68.0,59.0,73,29.82,8.0,South,15.0,25.3,N/A,,Mostly Cloudy,190,2013-01-30 15:52:00
11:52 AM,68.0,57.9,70,29.79,10.0,South,13.8,23.0,N/A,,Mostly Cloudy,170,2013-01-30 16:52:00
12:52 PM,69.1,57.9,68,29.74,10.0,South,10.4,23.0,N/A,,Mostly Cloudy,170,2013-01-30 17:52:00
1:52 PM,70.0,57.9,65,29.68,10.0,South,16.1,24.2,N/A,,Mostly Cloudy,180,2013-01-30 18:52:00
2:52 PM,71.1,57.9,63,29.69,10.0,South,15.0,24.2,N/A,,Overcast,180,2013-01-30 19:52:00
3:52 PM,71.1,57.0,61,29.66,10.0,South,13.8,20.7,N/A,,Overcast,170,2013-01-30 20:52:00
4:52 PM,71.1,57.0,61,29.63,10.0,SSE,12.7,21.9,N/A,,Mostly Cloudy,160,2013-01-30 21:52:00
5:04 PM,69.8,57.2,64,29.63,10.0,SSE,12.7,19.6,0.00,Rain,Light Rain,150,2013-01-30 22:04:00
5:52 PM,68.0,55.9,65,29.62,10.0,SSE,11.5,-,0.00,Rain,Light Rain,150,2013-01-30 22:52:00
6:52 PM,64.9,55.0,70,29.58,10.0,SE,10.4,19.6,0.00,Rain,Light Rain,140,2013-01-30 23:52:00
7:52 PM,64.0,55.0,73,29.55,10.0,SE,11.5,21.9,0.00,,Mostly Cloudy,140,2013-01-31 00:52:00
8:52 PM,61.0,53.1,75,29.50,10.0,SE,12.7,18.4,N/A,,Mostly Cloudy,130,2013-01-31 01:52:00
9:52 PM,54.0,48.9,83,29.46,10.0,ESE,8.1,-,N/A,,Overcast,120,2013-01-31 02:52:00
10:52 PM,62.1,55.0,78,29.41,10.0,SE,13.8,21.9,N/A,,Overcast,140,2013-01-31 03:52:00
11:52 PM,57.9,54.0,87,29.35,9.0,ESE,12.7,-,0.01,Rain,Light Rain,120,2013-01-31 04:52:00